This is the latest recevied weather packets stored in our database for station/object IK0TIX. If no packets are shown the sender has not sent any weather packets the latest 10 day(s).
| Time | Temp. | Humidity | Pressure | Rain* | Wind** | Luminosity | Snow |
|---|---|---|---|---|---|---|---|
| 1777482291 | 23.33° C | 36% | 1015.9 hPa | 0 mm | - | - | - |
| 1777481975 | 23.33° C | 36% | 1015.8 hPa | 0 mm | - | - | - |
| 1777481697 | 23.33° C | 35% | 1015.8 hPa | 0 mm | - | - | - |
| 1777479591 | 25° C | 31% | 1015.6 hPa | 0 mm | - | - | - |
| 1777478975 | 25° C | 27% | 1015.5 hPa | 0 mm | - | - | - |
| 1777478082 | 25.56° C | 27% | 1015.4 hPa | 0 mm | - | - | - |
| 1777477182 | 27.22° C | 26% | 1015.4 hPa | 0 mm | - | - | - |
| 1777475984 | 28.89° C | 26% | 1015.2 hPa | 0 mm | - | - | - |
| 1777472988 | 28.33° C | 27% | 1015.2 hPa | 0 mm | - | - | - |
| 1777472677 | 27.78° C | 28% | 1015.2 hPa | 0 mm | - | - | - |
| 1777470909 | 27.78° C | 29% | 1015.5 hPa | 0 mm | - | - | - |
| 1777469696 | 27.78° C | 26% | 1015.8 hPa | 0 mm | - | - | - |
| 1777469090 | 27.78° C | 27% | 1015.9 hPa | 0 mm | - | - | - |
| 1777468796 | 27.78° C | 27% | 1015.9 hPa | 0 mm | - | - | - |
| 1777467275 | 27.22° C | 27% | 1016 hPa | 0 mm | - | - | - |
| 1777466387 | 27.22° C | 29% | 1016.2 hPa | 0 mm | - | - | - |
| 1777466108 | 27.22° C | 30% | 1016.2 hPa | 0 mm | - | - | - |
| 1777463102 | 26.67° C | 25% | 1016.5 hPa | 0 mm | - | - | - |
| 1777462803 | 26.67° C | 27% | 1016.4 hPa | 0 mm | - | - | - |
| 1777462504 | 26.67° C | 27% | 1016.4 hPa | 0 mm | - | - | - |
| 1777462174 | 26.67° C | 27% | 1016.4 hPa | 0 mm | - | - | - |
| 1777461870 | 26.67° C | 27% | 1016.5 hPa | 0 mm | - | - | - |
| 1777460683 | 26.67° C | 28% | 1016.5 hPa | 0 mm | - | - | - |
| 1777460393 | 26.67° C | 28% | 1016.5 hPa | 0 mm | - | - | - |
| 1777459480 | 26.67° C | 28% | 1016.5 hPa | 0 mm | - | - | - |
* Rain latest hour (hover to see other rain measurements)
** Current wind speed in m/s (hover to see current wind gust speed)